sensor_id;sensor_type;location;lat;lon;timestamp;pressure;altitude;pressure_sealevel;temperature;humidity
60583;BME280;46415;47.536;19.066;2023-01-13T00:02:37;100861.31;;;0.93;100.00
60583;BME280;46415;47.536;19.066;2023-01-13T00:05:40;100857.03;;;0.83;100.00
60583;BME280;46415;47.536;19.066;2023-01-13T00:08:43;100856.16;;;0.81;100.00
60583;BME280;46415;47.536;19.066;2023-01-13T00:11:46;100848.50;;;0.87;100.00
60583;BME280;46415;47.536;19.066;2023-01-13T00:14:48;100856.22;;;0.98;100.00
60583;BME280;46415;47.536;19.066;2023-01-13T00:17:51;100856.25;;;1.07;100.00
60583;BME280;46415;47.536;19.066;2023-01-13T00:21:06;100846.87;;;1.21;100.00
60583;BME280;46415;47.536;19.066;2023-01-13T00:24:09;100846.06;;;1.36;100.00
60583;BME280;46415;47.536;19.066;2023-01-13T00:27:12;100847.78;;;1.58;100.00
60583;BME280;46415;47.536;19.066;2023-01-13T00:30:15;100838.41;;;1.68;100.00
60583;BME280;46415;47.536;19.066;2023-01-13T00:33:18;100837.56;;;1.62;100.00
60583;BME280;46415;47.536;19.066;2023-01-13T00:36:21;100832.44;;;1.58;100.00
60583;BME280;46415;47.536;19.066;2023-01-13T00:39:24;100846.94;;;1.60;100.00
60583;BME280;46415;47.536;19.066;2023-01-13T00:42:27;100845.22;;;1.69;100.00
60583;BME280;46415;47.536;19.066;2023-01-13T00:45:48;100836.69;;;1.68;100.00
60583;BME280;46415;47.536;19.066;2023-01-13T00:48:53;100839.25;;;1.82;100.00
60583;BME280;46415;47.536;19.066;2023-01-13T00:51:57;100840.13;;;1.82;100.00
60583;BME280;46415;47.536;19.066;2023-01-13T00:55:02;100846.09;;;1.81;100.00
60583;BME280;46415;47.536;19.066;2023-01-13T00:58:05;100829.87;;;1.94;100.00
60583;BME280;46415;47.536;19.066;2023-01-13T01:01:15;100843.53;;;1.96;100.00
60583;BME280;46415;47.536;19.066;2023-01-13T01:04:18;100836.66;;;2.03;100.00
60583;BME280;46415;47.536;19.066;2023-01-13T01:07:21;100839.25;;;2.00;100.00
60583;BME280;46415;47.536;19.066;2023-01-13T01:10:24;100834.13;;;1.86;100.00
60583;BME280;46415;47.536;19.066;2023-01-13T01:13:27;100829.87;;;1.82;100.00
60583;BME280;46415;47.536;19.066;2023-01-13T01:16:31;100833.28;;;1.81;100.00
60583;BME280;46415;47.536;19.066;2023-01-13T01:19:35;100824.75;;;1.75;100.00
60583;BME280;46415;47.536;19.066;2023-01-13T01:22:40;100829.00;;;1.86;100.00
60583;BME280;46415;47.536;19.066;2023-01-13T01:25:42;100825.59;;;1.87;100.00
60583;BME280;46415;47.536;19.066;2023-01-13T01:28:46;100823.91;;;1.71;100.00
60583;BME280;46415;47.536;19.066;2023-01-13T01:31:49;100821.34;;;1.76;100.00
60583;BME280;46415;47.536;19.066;2023-01-13T01:34:51;100823.91;;;1.62;100.00
60583;BME280;46415;47.536;19.066;2023-01-13T01:37:54;100823.91;;;1.62;100.00
60583;BME280;46415;47.536;19.066;2023-01-13T01:40:59;100809.41;;;1.50;100.00
60583;BME280;46415;47.536;19.066;2023-01-13T01:47:58;100816.25;;;1.51;100.00
60583;BME280;46415;47.536;19.066;2023-01-13T01:51:03;100806.84;;;1.50;100.00
60583;BME280;46415;47.536;19.066;2023-01-13T01:54:09;100807.72;;;1.54;100.00
60583;BME280;46415;47.536;19.066;2023-01-13T01:57:19;100808.56;;;1.47;100.00
60583;BME280;46415;47.536;19.066;2023-01-13T02:00:26;100804.31;;;1.49;100.00
60583;BME280;46415;47.536;19.066;2023-01-13T02:03:30;100797.50;;;1.54;100.00
60583;BME280;46415;47.536;19.066;2023-01-13T02:06:32;100797.50;;;1.52;100.00
60583;BME280;46415;47.536;19.066;2023-01-13T02:09:35;100796.63;;;1.61;100.00
60583;BME280;46415;47.536;19.066;2023-01-13T02:12:39;100788.94;;;1.61;100.00
60583;BME280;46415;47.536;19.066;2023-01-13T02:19:08;100791.50;;;1.62;100.00
60583;BME280;46415;47.536;19.066;2023-01-13T02:36:57;100779.59;;;1.66;100.00
60583;BME280;46415;47.536;19.066;2023-01-13T02:40:06;100777.03;;;1.66;100.00
60583;BME280;46415;47.536;19.066;2023-01-13T02:47:13;100764.22;;;1.77;100.00
60583;BME280;46415;47.536;19.066;2023-01-13T02:50:26;100771.03;;;1.67;100.00
60583;BME280;46415;47.536;19.066;2023-01-13T02:53:34;100770.19;;;1.74;100.00
60583;BME280;46415;47.536;19.066;2023-01-13T02:56:41;100776.16;;;1.67;100.00
60583;BME280;46415;47.536;19.066;2023-01-13T02:59:45;100768.47;;;1.67;100.00
60583;BME280;46415;47.536;19.066;2023-01-13T03:02:49;100762.53;;;1.57;100.00
60583;BME280;46415;47.536;19.066;2023-01-13T03:06:04;100766.78;;;1.69;100.00
60583;BME280;46415;47.536;19.066;2023-01-13T03:09:15;100762.50;;;1.77;100.00
60583;BME280;46415;47.536;19.066;2023-01-13T03:22:43;100748.87;;;1.57;100.00
60583;BME280;46415;47.536;19.066;2023-01-13T03:26:02;100753.16;;;1.56;100.00
60583;BME280;46415;47.536;19.066;2023-01-13T03:29:17;100752.31;;;1.53;100.00
60583;BME280;46415;47.536;19.066;2023-01-13T03:32:31;100758.28;;;1.55;100.00
60583;BME280;46415;47.536;19.066;2023-01-13T03:35:39;100748.06;;;1.55;100.00
60583;BME280;46415;47.536;19.066;2023-01-13T03:38:47;100746.34;;;1.58;100.00
60583;BME280;46415;47.536;19.066;2023-01-13T03:41:57;100743.78;;;1.66;100.00
60583;BME280;46415;47.536;19.066;2023-01-13T03:48:08;100734.38;;;1.71;100.00
60583;BME280;46415;47.536;19.066;2023-01-13T03:51:16;100736.94;;;1.77;100.00
60583;BME280;46415;47.536;19.066;2023-01-13T03:54:22;100730.97;;;1.71;100.00
60583;BME280;46415;47.536;19.066;2023-01-13T03:57:30;100737.78;;;1.70;100.00
60583;BME280;46415;47.536;19.066;2023-01-13T04:00:39;100732.66;;;1.78;100.00
60583;BME280;46415;47.536;19.066;2023-01-13T04:07:09;100734.34;;;1.82;100.00
60583;BME280;46415;47.536;19.066;2023-01-13T04:10:26;100745.44;;;1.82;100.00
60583;BME280;46415;47.536;19.066;2023-01-13T04:13:34;100747.97;;;1.87;100.00
60583;BME280;46415;47.536;19.066;2023-01-13T04:16:40;100748.00;;;1.82;100.00
60583;BME280;46415;47.536;19.066;2023-01-13T04:19:43;100739.44;;;1.85;100.00
60583;BME280;46415;47.536;19.066;2023-01-13T04:22:45;100744.53;;;1.91;100.00
60583;BME280;46415;47.536;19.066;2023-01-13T04:25:49;100747.12;;;1.95;100.00
60583;BME280;46415;47.536;19.066;2023-01-13T04:28:52;100746.25;;;1.95;100.00
60583;BME280;46415;47.536;19.066;2023-01-13T04:31:56;100740.25;;;2.03;100.00
60583;BME280;46415;47.536;19.066;2023-01-13T04:34:59;100749.66;;;2.01;100.00
60583;BME280;46415;47.536;19.066;2023-01-13T04:38:04;100755.63;;;2.07;100.00
60583;BME280;46415;47.536;19.066;2023-01-13T04:41:10;100758.19;;;2.02;100.00
60583;BME280;46415;47.536;19.066;2023-01-13T04:44:13;100753.94;;;2.02;100.00
60583;BME280;46415;47.536;19.066;2023-01-13T04:47:15;100758.19;;;2.00;100.00
60583;BME280;46415;47.536;19.066;2023-01-13T04:50:20;100759.88;;;1.98;100.00
60583;BME280;46415;47.536;19.066;2023-01-13T04:53:24;100751.34;;;1.98;100.00
60583;BME280;46415;47.536;19.066;2023-01-13T04:56:27;100757.34;;;1.85;100.00
60583;BME280;46415;47.536;19.066;2023-01-13T04:59:29;100756.53;;;1.83;100.00
60583;BME280;46415;47.536;19.066;2023-01-13T05:02:35;100752.25;;;1.88;100.00
60583;BME280;46415;47.536;19.066;2023-01-13T05:05:38;100754.84;;;1.79;100.00
60583;BME280;46415;47.536;19.066;2023-01-13T05:08:41;100750.56;;;1.70;100.00
60583;BME280;46415;47.536;19.066;2023-01-13T05:11:44;100762.50;;;1.79;100.00
60583;BME280;46415;47.536;19.066;2023-01-13T05:15:05;100758.22;;;1.73;100.00
60583;BME280;46415;47.536;19.066;2023-01-13T05:18:29;100769.31;;;1.80;100.00
60583;BME280;46415;47.536;19.066;2023-01-13T05:21:32;100763.34;;;1.79;100.00
60583;BME280;46415;47.536;19.066;2023-01-13T05:24:53;100758.25;;;1.69;100.00
60583;BME280;46415;47.536;19.066;2023-01-13T05:28:15;100773.59;;;1.56;100.00
60583;BME280;46415;47.536;19.066;2023-01-13T05:31:18;100776.16;;;1.64;100.00
60583;BME280;46415;47.536;19.066;2023-01-13T05:34:20;100774.44;;;1.61;100.00
60583;BME280;46415;47.536;19.066;2023-01-13T05:37:24;100770.19;;;1.71;100.00
60583;BME280;46415;47.536;19.066;2023-01-13T05:40:27;100777.84;;;1.68;100.00
60583;BME280;46415;47.536;19.066;2023-01-13T05:43:48;100777.03;;;1.64;100.00
60583;BME280;46415;47.536;19.066;2023-01-13T05:46:51;100773.63;;;1.58;100.00
60583;BME280;46415;47.536;19.066;2023-01-13T05:49:54;100765.09;;;1.51;100.00
60583;BME280;46415;47.536;19.066;2023-01-13T05:52:57;100765.97;;;1.49;100.00
60583;BME280;46415;47.536;19.066;2023-01-13T05:56:03;100761.69;;;1.54;100.00
60583;BME280;46415;47.536;19.066;2023-01-13T05:59:06;100760.84;;;1.55;100.00
60583;BME280;46415;47.536;19.066;2023-01-13T06:02:09;100768.47;;;1.61;100.00
60583;BME280;46415;47.536;19.066;2023-01-13T06:05:12;100771.91;;;1.60;100.00
60583;BME280;46415;47.536;19.066;2023-01-13T06:08:14;100761.66;;;1.57;100.00
60583;BME280;46415;47.536;19.066;2023-01-13T06:11:17;100771.03;;;1.61;100.00
60583;BME280;46415;47.536;19.066;2023-01-13T06:14:20;100777.84;;;1.68;100.00
60583;BME280;46415;47.536;19.066;2023-01-13T06:17:23;100770.22;;;1.67;100.00
60583;BME280;46415;47.536;19.066;2023-01-13T06:20:27;100771.06;;;1.58;100.00
60583;BME280;46415;47.536;19.066;2023-01-13T06:23:30;100773.63;;;1.53;100.00
60583;BME280;46415;47.536;19.066;2023-01-13T06:26:38;100778.72;;;1.66;100.00
60583;BME280;46415;47.536;19.066;2023-01-13T06:29:41;100776.16;;;1.61;100.00
60583;BME280;46415;47.536;19.066;2023-01-13T06:32:49;100774.47;;;1.54;100.00
60583;BME280;46415;47.536;19.066;2023-01-13T06:35:56;100781.28;;;1.61;100.00
60583;BME280;46415;47.536;19.066;2023-01-13T06:39:01;100778.72;;;1.66;100.00
60583;BME280;46415;47.536;19.066;2023-01-13T06:42:05;100786.37;;;1.76;100.00
60583;BME280;46415;47.536;19.066;2023-01-13T06:45:28;100781.25;;;1.82;100.00
60583;BME280;46415;47.536;19.066;2023-01-13T06:48:33;100788.09;;;1.83;100.00
60583;BME280;46415;47.536;19.066;2023-01-13T06:51:36;100797.47;;;1.89;100.00
60583;BME280;46415;47.536;19.066;2023-01-13T06:54:39;100802.56;;;1.99;100.00
60583;BME280;46415;47.536;19.066;2023-01-13T06:57:50;100803.37;;;2.11;100.00
60583;BME280;46415;47.536;19.066;2023-01-13T07:00:58;100807.66;;;2.13;100.00
60583;BME280;46415;47.536;19.066;2023-01-13T07:04:02;100805.03;;;2.30;100.00
60583;BME280;46415;47.536;19.066;2023-01-13T07:07:05;100799.06;;;2.32;100.00
60583;BME280;46415;47.536;19.066;2023-01-13T07:10:11;100801.62;;;2.31;100.00
60583;BME280;46415;47.536;19.066;2023-01-13T07:13:15;100801.56;;;2.38;100.00
60583;BME280;46415;47.536;19.066;2023-01-13T07:16:36;100804.97;;;2.45;100.00
60583;BME280;46415;47.536;19.066;2023-01-13T07:19:39;100802.34;;;2.57;100.00
60583;BME280;46415;47.536;19.066;2023-01-13T07:22:42;100809.19;;;2.60;100.00
60583;BME280;46415;47.536;19.066;2023-01-13T07:25:46;100803.97;;;2.76;100.00
60583;BME280;46415;47.536;19.066;2023-01-13T07:28:48;100802.25;;;2.83;100.00
60583;BME280;46415;47.536;19.066;2023-01-13T07:31:52;100805.63;;;2.88;100.00
60583;BME280;46415;47.536;19.066;2023-01-13T07:34:55;100797.91;;;2.94;100.00
60583;BME280;46415;47.536;19.066;2023-01-13T07:37:58;100807.34;;;2.86;100.00
60583;BME280;46415;47.536;19.066;2023-01-13T07:41:01;100805.53;;;3.06;100.00
60583;BME280;46415;47.536;19.066;2023-01-13T07:44:23;100803.81;;;3.10;100.00
60583;BME280;46415;47.536;19.066;2023-01-13T07:47:26;100801.97;;;3.27;100.00
60583;BME280;46415;47.536;19.066;2023-01-13T07:50:29;100811.31;;;3.37;100.00
60583;BME280;46415;47.536;19.066;2023-01-13T07:53:32;100810.41;;;3.44;100.00
60583;BME280;46415;47.536;19.066;2023-01-13T07:56:35;100807.75;;;3.55;100.00
60583;BME280;46415;47.536;19.066;2023-01-13T07:59:38;100812.84;;;3.59;100.00
60583;BME280;46415;47.536;19.066;2023-01-13T08:02:41;100809.38;;;3.63;100.00
60583;BME280;46415;47.536;19.066;2023-01-13T08:05:49;100812.84;;;3.61;100.00
60583;BME280;46415;47.536;19.066;2023-01-13T08:08:52;100814.41;;;3.76;100.00
60583;BME280;46415;47.536;19.066;2023-01-13T08:11:56;100828.88;;;3.86;100.00
60583;BME280;46415;47.536;19.066;2023-01-13T08:15:18;100834.13;;;3.72;100.00
60583;BME280;46415;47.536;19.066;2023-01-13T08:18:21;100839.28;;;3.69;100.00
60583;BME280;46415;47.536;19.066;2023-01-13T08:21:24;100846.19;;;3.59;100.00
60583;BME280;46415;47.536;19.066;2023-01-13T08:24:27;100841.81;;;3.70;100.00
60583;BME280;46415;47.536;19.066;2023-01-13T08:27:29;100835.94;;;3.58;100.00
60583;BME280;46415;47.536;19.066;2023-01-13T08:30:33;100839.41;;;3.52;100.00
60583;BME280;46415;47.536;19.066;2023-01-13T08:33:35;100846.94;;;3.72;100.00
60583;BME280;46415;47.536;19.066;2023-01-13T08:36:39;100846.97;;;3.70;100.00
60583;BME280;46415;47.536;19.066;2023-01-13T08:39:42;100843.59;;;3.65;100.00
60583;BME280;46415;47.536;19.066;2023-01-13T08:42:45;100840.19;;;3.62;100.00
60583;BME280;46415;47.536;19.066;2023-01-13T08:45:55;100847.00;;;3.67;100.00
60583;BME280;46415;47.536;19.066;2023-01-13T08:48:59;100849.66;;;3.52;100.00
60583;BME280;46415;47.536;19.066;2023-01-13T08:52:01;100847.88;;;3.63;100.00
60583;BME280;46415;47.536;19.066;2023-01-13T08:55:05;100847.88;;;3.63;100.00
60583;BME280;46415;47.536;19.066;2023-01-13T08:58:08;100855.59;;;3.62;100.00
60583;BME280;46415;47.536;19.066;2023-01-13T09:01:21;100861.69;;;3.47;100.00
60583;BME280;46415;47.536;19.066;2023-01-13T09:04:26;100862.53;;;3.46;100.00
60583;BME280;46415;47.536;19.066;2023-01-13T09:07:30;100849.75;;;3.42;100.00
60583;BME280;46415;47.536;19.066;2023-01-13T09:10:32;100844.66;;;3.39;100.00
60583;BME280;46415;47.536;19.066;2023-01-13T09:13:37;100852.38;;;3.31;100.00
60583;BME280;46415;47.536;19.066;2023-01-13T09:16:41;100848.88;;;3.43;100.00
60583;BME280;46415;47.536;19.066;2023-01-13T09:19:43;100848.88;;;3.43;100.00
60583;BME280;46415;47.536;19.066;2023-01-13T09:22:46;100847.94;;;3.53;100.00
60583;BME280;46415;47.536;19.066;2023-01-13T09:25:51;100846.28;;;3.50;100.00
60583;BME280;46415;47.536;19.066;2023-01-13T09:28:54;100847.03;;;3.61;100.00
60583;BME280;46415;47.536;19.066;2023-01-13T09:31:57;100846.09;;;3.75;100.00
60583;BME280;46415;47.536;19.066;2023-01-13T09:34:59;100840.81;;;3.88;100.00
60583;BME280;46415;47.536;19.066;2023-01-13T09:38:02;100850.97;;;4.00;100.00
60583;BME280;46415;47.536;19.066;2023-01-13T09:41:05;100858.62;;;4.09;100.00
60583;BME280;46415;47.536;19.066;2023-01-13T09:44:49;100850.97;;;4.02;100.00
60583;BME280;46415;47.536;19.066;2023-01-13T09:48:08;100840.84;;;3.85;100.00
60583;BME280;46415;47.536;19.066;2023-01-13T09:51:44;100844.28;;;3.86;100.00
60583;BME280;46415;47.536;19.066;2023-01-13T09:54:50;100851.19;;;3.76;100.00
60583;BME280;46415;47.536;19.066;2023-01-13T09:57:55;100837.53;;;3.74;100.00
60583;BME280;46415;47.536;19.066;2023-01-13T10:04:09;100840.91;;;3.78;100.00
60583;BME280;46415;47.536;19.066;2023-01-13T10:07:13;100839.91;;;3.94;100.00
60583;BME280;46415;47.536;19.066;2023-01-13T10:10:47;100842.47;;;3.94;100.00
60583;BME280;46415;47.536;19.066;2023-01-13T10:13:55;100837.16;;;4.15;100.00
60583;BME280;46415;47.536;19.066;2023-01-13T10:30:22;100833.78;;;4.10;100.00
60583;BME280;46415;47.536;19.066;2023-01-13T10:33:26;100836.34;;;4.08;100.00
60583;BME280;46415;47.536;19.066;2023-01-13T10:36:30;100837.13;;;4.17;100.00
60583;BME280;46415;47.536;19.066;2023-01-13T10:39:44;100828.41;;;4.33;100.00
60583;BME280;46415;47.536;19.066;2023-01-13T10:42:47;100818.28;;;4.18;100.00
60583;BME280;46415;47.536;19.066;2023-01-13T10:49:02;100820.03;;;4.14;100.00
60583;BME280;46415;47.536;19.066;2023-01-13T10:52:24;100811.28;;;4.32;100.00
60583;BME280;46415;47.536;19.066;2023-01-13T10:55:33;100806.25;;;4.23;100.00
60583;BME280;46415;47.536;19.066;2023-01-13T10:58:38;100803.94;;;3.97;100.00
60583;BME280;46415;47.536;19.066;2023-01-13T11:01:53;100793.69;;;3.94;100.00
60583;BME280;46415;47.536;19.066;2023-01-13T11:05:02;100785.91;;;4.03;100.00
60583;BME280;46415;47.536;19.066;2023-01-13T11:08:28;100779.00;;;4.06;100.00
60583;BME280;46415;47.536;19.066;2023-01-13T11:11:41;100777.53;;;3.86;100.00
60583;BME280;46415;47.536;19.066;2023-01-13T11:14:46;100788.66;;;3.85;100.00
60583;BME280;46415;47.536;19.066;2023-01-13T11:18:00;100775.69;;;3.97;100.00
60583;BME280;46415;47.536;19.066;2023-01-13T11:21:27;100772.22;;;4.01;100.00
60583;BME280;46415;47.536;19.066;2023-01-13T11:24:53;100760.22;;;4.04;100.00
60583;BME280;46415;47.536;19.066;2023-01-13T11:31:28;100752.53;;;4.03;100.00
60583;BME280;46415;47.536;19.066;2023-01-13T11:34:36;100750.00;;;3.98;100.00
60583;BME280;46415;47.536;19.066;2023-01-13T11:37:44;100755.16;;;3.95;100.00
60583;BME280;46415;47.536;19.066;2023-01-13T11:40:49;100760.22;;;4.03;100.00
60583;BME280;46415;47.536;19.066;2023-01-13T11:44:23;100763.72;;;3.97;100.00
60583;BME280;46415;47.536;19.066;2023-01-13T11:47:30;100756.81;;;3.99;100.00
60583;BME280;46415;47.536;19.066;2023-01-13T12:04:49;100702.28;;;3.81;100.00
60583;BME280;46415;47.536;19.066;2023-01-13T12:08:10;100702.34;;;3.73;100.00
60583;BME280;46415;47.536;19.066;2023-01-13T12:14:44;100687.16;;;3.52;100.00
60583;BME280;46415;47.536;19.066;2023-01-13T12:21:23;100685.38;;;3.61;100.00
60583;BME280;46415;47.536;19.066;2023-01-13T12:28:13;100673.25;;;3.74;100.00
60583;BME280;46415;47.536;19.066;2023-01-13T12:31:17;100677.53;;;3.74;100.00
60583;BME280;46415;47.536;19.066;2023-01-13T12:37:59;100694.72;;;3.67;100.00
60583;BME280;46415;47.536;19.066;2023-01-13T12:44:22;100684.25;;;3.85;100.00
60583;BME280;46415;47.536;19.066;2023-01-13T12:47:41;100692.66;;;3.98;100.00
60583;BME280;46415;47.536;19.066;2023-01-13T12:50:58;100684.25;;;3.87;100.00
60583;BME280;46415;47.536;19.066;2023-01-13T12:54:30;100686.75;;;3.93;100.00
60583;BME280;46415;47.536;19.066;2023-01-13T12:57:35;100684.03;;;4.05;100.00
60583;BME280;46415;47.536;19.066;2023-01-13T13:04:06;100676.41;;;3.99;100.00
60583;BME280;46415;47.536;19.066;2023-01-13T13:07:12;100683.31;;;3.92;100.00
60583;BME280;46415;47.536;19.066;2023-01-13T13:10:29;100676.44;;;3.94;100.00
60583;BME280;46415;47.536;19.066;2023-01-13T13:13:45;100686.53;;;4.11;100.00
60583;BME280;46415;47.536;19.066;2023-01-13T13:16:51;100699.31;;;4.14;100.00
60583;BME280;46415;47.536;19.066;2023-01-13T13:19:55;100695.91;;;4.12;100.00
60583;BME280;46415;47.536;19.066;2023-01-13T13:22:59;100694.97;;;4.18;100.00
60583;BME280;46415;47.536;19.066;2023-01-13T13:39:45;100685.06;;;4.55;100.00
60583;BME280;46415;47.536;19.066;2023-01-13T13:43:11;100692.78;;;4.55;100.00
60583;BME280;46415;47.536;19.066;2023-01-13T13:46:44;100680.87;;;4.47;100.00
60583;BME280;46415;47.536;19.066;2023-01-13T13:49:52;100691.37;;;4.32;100.00
60583;BME280;46415;47.536;19.066;2023-01-13T13:53:01;100700.78;;;4.35;100.00
60583;BME280;46415;47.536;19.066;2023-01-13T13:56:19;100708.50;;;4.33;100.00
60583;BME280;46415;47.536;19.066;2023-01-13T13:59:25;100711.09;;;4.30;100.00
60583;BME280;46415;47.536;19.066;2023-01-13T14:02:34;100712.84;;;4.28;100.00
60583;BME280;46415;47.536;19.066;2023-01-13T14:05:38;100716.31;;;4.24;100.00
60583;BME280;46415;47.536;19.066;2023-01-13T14:08:48;100718.78;;;4.33;100.00
60583;BME280;46415;47.536;19.066;2023-01-13T14:12:12;100714.50;;;4.32;100.00
60583;BME280;46415;47.536;19.066;2023-01-13T14:15:27;100717.00;;;4.37;100.00
60583;BME280;46415;47.536;19.066;2023-01-13T14:18:34;100717.78;;;4.43;100.00
60583;BME280;46415;47.536;19.066;2023-01-13T14:21:46;100708.44;;;4.38;100.00
60583;BME280;46415;47.536;19.066;2023-01-13T14:24:49;100702.25;;;4.51;100.00
60583;BME280;46415;47.536;19.066;2023-01-13T14:27:59;100710.75;;;4.56;100.00
60583;BME280;46415;47.536;19.066;2023-01-13T14:31:06;100700.47;;;4.55;100.00
60583;BME280;46415;47.536;19.066;2023-01-13T14:34:10;100696.28;;;4.49;100.00
60583;BME280;46415;47.536;19.066;2023-01-13T14:37:37;100699.69;;;4.49;100.00
60583;BME280;46415;47.536;19.066;2023-01-13T14:40:42;100688.66;;;4.44;100.00
60583;BME280;46415;47.536;19.066;2023-01-13T14:43:48;100699.72;;;4.48;100.00
60583;BME280;46415;47.536;19.066;2023-01-13T14:46:53;100697.91;;;4.56;100.00
60583;BME280;46415;47.536;19.066;2023-01-13T14:50:06;100710.84;;;4.48;100.00
60583;BME280;46415;47.536;19.066;2023-01-13T14:53:26;100719.41;;;4.50;100.00
60583;BME280;46415;47.536;19.066;2023-01-13T14:56:47;100713.41;;;4.51;100.00
60583;BME280;46415;47.536;19.066;2023-01-13T15:03:05;100709.19;;;4.46;100.00
60583;BME280;46415;47.536;19.066;2023-01-13T15:06:22;100703.91;;;4.53;100.00
60583;BME280;46415;47.536;19.066;2023-01-13T15:09:28;100706.44;;;4.58;100.00
60583;BME280;46415;47.536;19.066;2023-01-13T15:12:36;100702.94;;;4.64;100.00
60583;BME280;46415;47.536;19.066;2023-01-13T15:15:40;100698.78;;;4.53;100.00
60583;BME280;46415;47.536;19.066;2023-01-13T15:18:43;100697.87;;;4.58;100.00
60583;BME280;46415;47.536;19.066;2023-01-13T15:21:47;100702.13;;;4.60;100.00
60583;BME280;46415;47.536;19.066;2023-01-13T15:24:49;100703.88;;;4.58;100.00
60583;BME280;46415;47.536;19.066;2023-01-13T15:27:52;100697.09;;;4.53;100.00
60583;BME280;46415;47.536;19.066;2023-01-13T15:30:55;100702.19;;;4.54;100.00
60583;BME280;46415;47.536;19.066;2023-01-13T15:34:02;100704.91;;;4.45;100.00
60583;BME280;46415;47.536;19.066;2023-01-13T15:37:07;100704.94;;;4.43;100.00
60583;BME280;46415;47.536;19.066;2023-01-13T15:40:29;100705.69;;;4.51;100.00
60583;BME280;46415;47.536;19.066;2023-01-13T15:43:32;100709.88;;;4.57;100.00
60583;BME280;46415;47.536;19.066;2023-01-13T15:46:54;100710.81;;;4.51;100.00
60583;BME280;46415;47.536;19.066;2023-01-13T15:49:57;100715.03;;;4.57;100.00
60583;BME280;46415;47.536;19.066;2023-01-13T15:53:01;100713.47;;;4.45;100.00
60583;BME280;46415;47.536;19.066;2023-01-13T15:56:10;100723.72;;;4.47;100.00
60583;BME280;46415;47.536;19.066;2023-01-13T15:59:17;100723.62;;;4.53;100.00
60583;BME280;46415;47.536;19.066;2023-01-13T16:02:20;100724.63;;;4.41;100.00
60583;BME280;46415;47.536;19.066;2023-01-13T16:05:24;100711.84;;;4.38;100.00
60583;BME280;46415;47.536;19.066;2023-01-13T16:08:27;100724.53;;;4.50;100.00
60583;BME280;46415;47.536;19.066;2023-01-13T16:11:32;100720.19;;;4.56;100.00
60583;BME280;46415;47.536;19.066;2023-01-13T16:14:35;100721.91;;;4.53;100.00
60583;BME280;46415;47.536;19.066;2023-01-13T16:17:38;100718.47;;;4.56;100.00
60583;BME280;46415;47.536;19.066;2023-01-13T16:20:44;100713.41;;;4.50;100.00
60583;BME280;46415;47.536;19.066;2023-01-13T16:23:49;100717.66;;;4.53;100.00
60583;BME280;46415;47.536;19.066;2023-01-13T16:26:52;100721.09;;;4.51;100.00
60583;BME280;46415;47.536;19.066;2023-01-13T16:29:55;100722.84;;;4.49;100.00
60583;BME280;46415;47.536;19.066;2023-01-13T16:32:58;100721.87;;;4.58;100.00
60583;BME280;46415;47.536;19.066;2023-01-13T16:36:04;100716.69;;;4.60;100.00
60583;BME280;46415;47.536;19.066;2023-01-13T16:39:19;100718.44;;;4.58;100.00
60583;BME280;46415;47.536;19.066;2023-01-13T16:42:23;100717.44;;;4.68;100.00
60583;BME280;46415;47.536;19.066;2023-01-13T16:45:26;100716.59;;;4.66;100.00
60583;BME280;46415;47.536;19.066;2023-01-13T16:48:29;100712.38;;;4.62;100.00
60583;BME280;46415;47.536;19.066;2023-01-13T16:51:32;100705.72;;;4.48;100.00
60583;BME280;46415;47.536;19.066;2023-01-13T16:54:35;100702.25;;;4.53;100.00
60583;BME280;46415;47.536;19.066;2023-01-13T16:57:38;100695.16;;;4.67;100.00
60583;BME280;46415;47.536;19.066;2023-01-13T17:00:40;100701.41;;;4.50;100.00
60583;BME280;46415;47.536;19.066;2023-01-13T17:03:44;100705.69;;;4.50;100.00
60583;BME280;46415;47.536;19.066;2023-01-13T17:06:57;100710.75;;;4.58;100.00
60583;BME280;46415;47.536;19.066;2023-01-13T17:10:02;100718.44;;;4.58;100.00
60583;BME280;46415;47.536;19.066;2023-01-13T17:13:06;100726.94;;;4.63;100.00
60583;BME280;46415;47.536;19.066;2023-01-13T17:16:20;100726.97;;;4.61;100.00
60583;BME280;46415;47.536;19.066;2023-01-13T17:19:24;100725.34;;;4.54;100.00
60583;BME280;46415;47.536;19.066;2023-01-13T17:22:27;100720.19;;;4.56;100.00
60583;BME280;46415;47.536;19.066;2023-01-13T17:25:32;100732.16;;;4.58;100.00
60583;BME280;46415;47.536;19.066;2023-01-13T17:28:34;100739.63;;;4.75;100.00
60583;BME280;46415;47.536;19.066;2023-01-13T17:31:37;100732.94;;;4.63;100.00
60583;BME280;46415;47.536;19.066;2023-01-13T17:34:40;100733.88;;;4.56;100.00
60583;BME280;46415;47.536;19.066;2023-01-13T17:37:43;100733.88;;;4.58;100.00
60583;BME280;46415;47.536;19.066;2023-01-13T17:40:46;100733.72;;;4.67;100.00
60583;BME280;46415;47.536;19.066;2023-01-13T17:43:52;100731.22;;;4.64;100.00
60583;BME280;46415;47.536;19.066;2023-01-13T17:46:54;100742.28;;;4.70;100.00
60583;BME280;46415;47.536;19.066;2023-01-13T17:49:58;100742.44;;;4.57;100.00
60583;BME280;46415;47.536;19.066;2023-01-13T17:53:01;100747.59;;;4.55;100.00
60583;BME280;46415;47.536;19.066;2023-01-13T17:56:04;100750.09;;;4.60;100.00
60583;BME280;46415;47.536;19.066;2023-01-13T17:59:09;100747.44;;;4.66;100.00
60583;BME280;46415;47.536;19.066;2023-01-13T18:02:13;100743.22;;;4.65;100.00
60583;BME280;46415;47.536;19.066;2023-01-13T18:05:16;100741.44;;;4.67;100.00